createdAt,value
2023-11-27T00:03:44.194Z,-1.23
2023-11-27T00:10:21.972Z,-1.18
2023-11-27T00:17:49.437Z,-1.08
2023-11-27T00:21:28.818Z,-1.09
2023-11-27T00:25:04.882Z,-1.08
2023-11-27T00:32:13.209Z,-1.07
2023-11-27T00:35:30.160Z,-1.05
2023-11-27T00:42:24.313Z,-1.00
2023-11-27T00:45:44.805Z,-1.02
2023-11-27T00:49:42.065Z,-1.01
2023-11-27T00:53:09.815Z,-1.01
2023-11-27T01:00:49.846Z,-1.01
2023-11-27T01:04:09.709Z,-0.97
2023-11-27T01:14:18.185Z,-0.96
2023-11-27T01:17:35.149Z,-0.92
2023-11-27T01:20:55.120Z,-0.92
2023-11-27T01:24:14.414Z,-0.91
2023-11-27T01:27:55.395Z,-0.95
2023-11-27T01:31:20.558Z,-0.95
2023-11-27T01:38:13.698Z,-1.03
2023-11-27T01:41:40.799Z,-1.07
2023-11-27T01:45:09.329Z,-1.03
2023-11-27T01:48:46.098Z,-1.06
2023-11-27T01:55:45.307Z,-1.10
2023-11-27T01:59:23.492Z,-1.07
2023-11-27T02:02:57.217Z,-1.06
2023-11-27T02:07:10.218Z,-1.09
2023-11-27T02:10:22.254Z,-1.06
2023-11-27T02:13:53.959Z,-1.07
2023-11-27T02:17:17.579Z,-1.07
2023-11-27T02:24:56.004Z,-1.15
2023-11-27T02:31:42.080Z,-1.16
2023-11-27T02:39:09.137Z,-1.28
2023-11-27T02:42:39.368Z,-1.28
2023-11-27T02:49:07.975Z,-1.33
2023-11-27T02:52:39.768Z,-1.32
2023-11-27T02:56:31.077Z,-1.34
2023-11-27T03:00:14.650Z,-1.34
2023-11-27T03:03:47.233Z,-1.35
2023-11-27T03:07:09.171Z,-1.45
2023-11-27T03:10:28.960Z,-1.56
2023-11-27T03:13:57.138Z,-1.76
2023-11-27T03:17:42.367Z,-1.90
2023-11-27T03:21:26.692Z,-1.96
2023-11-27T03:25:00.000Z,-2.03
2023-11-27T03:28:45.174Z,-2.09
2023-11-27T03:38:59.678Z,-2.15
2023-11-27T03:42:27.793Z,-2.14
2023-11-27T03:45:44.928Z,-2.09
2023-11-27T03:54:11.345Z,-1.98
2023-11-27T04:02:12.193Z,-1.87
2023-11-27T04:05:52.001Z,-1.80
2023-11-27T04:09:31.516Z,-1.78
2023-11-27T04:16:53.456Z,-1.79
2023-11-27T04:20:47.628Z,-1.86
2023-11-27T04:31:33.000Z,-1.85
2023-11-27T04:35:44.055Z,-1.90
2023-11-27T04:39:10.033Z,-1.88
2023-11-27T04:42:40.111Z,-1.89
2023-11-27T05:05:04.677Z,-1.76
2023-11-27T05:13:08.315Z,-1.95
2023-11-27T05:17:08.942Z,-1.83
2023-11-27T05:21:37.339Z,-1.77
2023-11-27T05:29:17.929Z,-1.80
2023-11-27T05:36:01.005Z,-1.90
2023-11-27T05:47:51.528Z,-1.91
2023-11-27T05:51:11.624Z,-1.96
2023-11-27T05:54:59.072Z,-2.05
2023-11-27T05:58:35.399Z,-2.07
2023-11-27T06:08:55.947Z,-2.20
2023-11-27T06:20:32.723Z,-2.28
2023-11-27T06:24:10.582Z,-2.32
2023-11-27T06:31:49.118Z,-2.45
2023-11-27T06:40:01.589Z,-2.42
2023-11-27T06:56:42.924Z,-2.46
2023-11-27T07:01:12.227Z,-2.42
2023-11-27T07:04:59.070Z,-2.40
2023-11-27T07:11:54.490Z,-2.27
2023-11-27T07:17:18.120Z,-2.22
2023-11-27T07:24:49.057Z,-2.06
2023-11-27T07:28:55.249Z,-2.06
2023-11-27T07:30:32.081Z,-2.15
2023-11-27T07:41:50.727Z,-1.96
2023-11-27T07:56:46.596Z,-1.55
2023-11-27T08:00:08.586Z,-1.50
2023-11-27T08:03:28.389Z,-1.43
2023-11-27T08:06:58.721Z,-1.39
2023-11-27T08:14:39.073Z,-1.26
2023-11-27T08:18:17.105Z,-1.23
2023-11-27T08:22:16.107Z,-1.13
2023-11-27T08:25:33.569Z,-1.03
2023-11-27T08:28:50.642Z,-0.94
2023-11-27T08:32:08.033Z,-0.85
2023-11-27T08:40:24.298Z,-0.72
2023-11-27T08:47:34.710Z,-0.67
2023-11-27T08:51:31.662Z,-0.67
2023-11-27T08:55:05.976Z,-0.62
2023-11-27T08:58:27.171Z,-0.51
2023-11-27T09:01:54.771Z,-0.58
2023-11-27T09:05:33.840Z,-0.60
2023-11-27T09:09:01.364Z,-0.59
2023-11-27T09:12:58.174Z,-0.56
2023-11-27T09:16:36.041Z,-0.61
2023-11-27T09:28:00.214Z,-0.64
2023-11-27T09:31:19.729Z,-0.64
2023-11-27T09:35:04.783Z,-0.61
2023-11-27T09:51:06.801Z,-0.56
2023-11-27T09:55:05.077Z,-0.48
2023-11-27T09:58:52.101Z,-0.30
2023-11-27T10:02:25.055Z,-0.29
2023-11-27T10:06:41.737Z,-0.11
2023-11-27T10:14:38.171Z,0.52
2023-11-27T10:17:55.440Z,0.70
2023-11-27T10:21:19.958Z,0.67
2023-11-27T10:24:39.624Z,0.83
2023-11-27T10:28:11.446Z,0.94
2023-11-27T10:48:54.658Z,1.10
2023-11-27T10:52:49.238Z,1.12
2023-11-27T10:57:25.254Z,1.21
2023-11-27T11:01:50.349Z,1.09
2023-11-27T11:05:52.566Z,1.21
2023-11-27T11:16:45.579Z,1.18
2023-11-27T11:29:13.253Z,1.06
2023-11-27T11:33:04.310Z,1.19
2023-11-27T11:42:04.695Z,1.13
2023-11-27T11:49:08.329Z,1.40
2023-11-27T11:52:38.261Z,1.41
2023-11-27T11:57:09.410Z,1.33
2023-11-27T12:05:45.427Z,1.19
2023-11-27T12:36:33.787Z,0.91
2023-11-27T12:45:32.215Z,0.78
2023-11-27T12:49:28.021Z,0.77
2023-11-27T12:53:15.846Z,0.72
2023-11-27T12:57:12.572Z,0.74
2023-11-27T13:37:39.859Z,0.46
2023-11-27T13:41:22.761Z,0.46
2023-11-27T13:50:25.876Z,0.46
2023-11-27T13:54:40.967Z,0.45
2023-11-27T14:05:21.116Z,0.42
2023-11-27T14:09:02.932Z,0.40
2023-11-27T14:12:48.146Z,0.31
2023-11-27T14:20:05.260Z,0.25
2023-11-27T14:28:22.895Z,0.01
2023-11-27T14:35:54.519Z,-0.15
2023-11-27T14:39:52.124Z,-0.28
2023-11-27T14:47:25.986Z,-0.39
2023-11-27T14:51:02.961Z,-0.49
2023-11-27T15:04:45.030Z,-0.71
2023-11-27T15:11:36.585Z,-0.87
2023-11-27T15:15:21.417Z,-0.95
2023-11-27T15:20:31.387Z,-0.96
2023-11-27T15:23:28.946Z,-0.88
2023-11-27T15:31:32.765Z,-1.04
2023-11-27T15:49:35.418Z,-1.41
2023-11-27T15:53:18.599Z,-1.38
2023-11-27T15:57:13.500Z,-1.35
2023-11-27T16:00:58.037Z,-1.34
2023-11-27T16:05:20.756Z,-1.31
2023-11-27T16:10:25.438Z,-1.29
2023-11-27T16:12:34.584Z,-1.23
2023-11-27T16:16:40.754Z,-1.19
2023-11-27T16:20:29.961Z,-1.11
2023-11-27T16:28:08.813Z,-1.26
2023-11-27T16:31:35.636Z,-1.20
2023-11-27T16:36:15.872Z,-1.16
2023-11-27T16:55:51.003Z,-1.62
2023-11-27T16:59:31.035Z,-1.65
2023-11-27T17:08:02.062Z,-1.64
2023-11-27T17:15:37.692Z,-1.63
2023-11-27T17:19:10.848Z,-1.64
2023-11-27T17:22:32.690Z,-1.56
2023-11-27T17:26:22.482Z,-1.61
2023-11-27T17:33:31.924Z,-1.57
2023-11-27T17:41:24.118Z,-1.65
2023-11-27T17:48:47.448Z,-1.42
2023-11-27T17:52:52.133Z,-1.40
2023-11-27T17:56:39.575Z,-1.31
2023-11-27T18:01:05.228Z,-1.40
2023-11-27T18:04:29.915Z,-1.33
2023-11-27T18:08:14.360Z,-1.28
2023-11-27T18:12:32.350Z,-1.17
2023-11-27T18:16:00.022Z,-1.18
2023-11-27T18:23:52.658Z,-1.04
2023-11-27T18:27:25.947Z,-0.94
2023-11-27T18:35:27.091Z,-0.89
2023-11-27T18:39:17.098Z,-0.95
2023-11-27T18:42:55.865Z,-1.01
2023-11-27T18:47:15.040Z,-1.00
2023-11-27T18:50:41.971Z,-1.16
2023-11-27T18:54:51.936Z,-1.19
2023-11-27T18:58:46.682Z,-1.16
2023-11-27T19:02:38.727Z,-1.12
2023-11-27T19:09:54.340Z,-1.09
2023-11-27T19:13:37.703Z,-1.12
2023-11-27T19:26:23.980Z,-0.99
2023-11-27T19:29:54.193Z,-1.00
2023-11-27T19:41:24.321Z,-1.02
2023-11-27T19:49:15.127Z,-1.14
2023-11-27T19:52:54.582Z,-1.18
2023-11-27T19:56:31.773Z,-1.19
2023-11-27T20:00:17.125Z,-1.18
2023-11-27T20:07:24.241Z,-1.11
2023-11-27T20:11:30.513Z,-1.15
2023-11-27T20:18:48.460Z,-1.22
2023-11-27T20:26:02.890Z,-1.28
2023-11-27T20:30:28.354Z,-1.37
2023-11-27T20:34:12.128Z,-1.31
2023-11-27T20:38:04.178Z,-1.33
2023-11-27T20:41:40.353Z,-1.40
2023-11-27T20:45:26.226Z,-1.35
2023-11-27T20:48:51.606Z,-1.39
2023-11-27T20:52:39.352Z,-1.34
2023-11-27T20:55:58.881Z,-1.33
2023-11-27T21:04:20.968Z,-1.37
2023-11-27T21:07:48.221Z,-1.37
2023-11-27T21:12:06.703Z,-1.44
2023-11-27T21:14:56.271Z,-1.50
2023-11-27T21:18:55.438Z,-1.54
2023-11-27T21:22:55.042Z,-1.50
2023-11-27T21:25:40.216Z,-1.50
2023-11-27T21:29:36.423Z,-1.60
2023-11-27T21:36:21.312Z,-1.55
2023-11-27T21:44:51.059Z,-1.59
2023-11-27T21:48:08.551Z,-1.62
2023-11-27T21:51:34.404Z,-1.68
2023-11-27T21:55:05.359Z,-1.74
2023-11-27T21:58:27.941Z,-1.76
2023-11-27T22:01:48.221Z,-1.73
2023-11-27T22:05:42.257Z,-1.73
2023-11-27T22:08:59.118Z,-1.74
2023-11-27T22:12:31.085Z,-1.75
2023-11-27T22:15:50.560Z,-1.80
2023-11-27T22:19:11.094Z,-1.76
2023-11-27T22:22:31.489Z,-1.85
2023-11-27T22:25:55.553Z,-1.72
2023-11-27T22:29:32.958Z,-1.68
2023-11-27T22:33:03.418Z,-1.84
2023-11-27T22:36:44.144Z,-1.76
2023-11-27T22:40:07.585Z,-1.74
2023-11-27T22:51:53.040Z,-1.71
2023-11-27T22:54:25.679Z,-1.69
2023-11-27T22:57:50.486Z,-1.72
2023-11-27T23:01:29.398Z,-1.71
2023-11-27T23:04:59.602Z,-1.75
2023-11-27T23:08:30.394Z,-1.75
2023-11-27T23:11:54.682Z,-1.78
2023-11-27T23:15:34.879Z,-1.77
2023-11-27T23:19:03.307Z,-1.75
2023-11-27T23:22:22.846Z,-1.81
2023-11-27T23:25:46.808Z,-1.86
2023-11-27T23:29:12.219Z,-1.89
2023-11-27T23:32:37.013Z,-1.90
2023-11-27T23:35:55.559Z,-1.86
2023-11-27T23:39:33.348Z,-1.89
2023-11-27T23:42:55.203Z,-1.92
2023-11-27T23:46:28.038Z,-1.87
2023-11-27T23:49:49.733Z,-1.95
2023-11-27T23:53:14.197Z,-1.97
2023-11-27T23:56:40.272Z,-1.96
